createdAt,value
2019-06-15T00:00:31.405Z,91.06
2019-06-15T00:03:00.389Z,92.60
2019-06-15T00:05:29.279Z,93.83
2019-06-15T00:07:58.572Z,95.50
2019-06-15T00:10:28.067Z,96.64
2019-06-15T00:12:57.033Z,97.47
2019-06-15T00:15:26.092Z,98.11
2019-06-15T00:17:55.378Z,98.10
2019-06-15T00:20:24.857Z,98.51
2019-06-15T00:22:53.714Z,98.31
2019-06-15T00:25:22.618Z,98.66
2019-06-15T00:27:51.517Z,98.80
2019-06-15T00:30:20.937Z,98.94
2019-06-15T00:32:50.173Z,98.96
2019-06-15T00:35:19.051Z,98.93
2019-06-15T00:37:48.006Z,99.00
2019-06-15T00:40:17.059Z,98.99
2019-06-15T00:42:46.281Z,99.11
2019-06-15T00:45:15.282Z,99.12
2019-06-15T00:47:44.751Z,99.34
2019-06-15T00:50:13.771Z,99.63
2019-06-15T00:52:43.011Z,99.74
2019-06-15T00:55:12.621Z,99.08
2019-06-15T00:57:42.128Z,99.01
2019-06-15T01:00:11.071Z,98.94
2019-06-15T01:02:39.991Z,99.48
2019-06-15T01:05:09.424Z,100.00
2019-06-15T01:07:38.344Z,100.00
2019-06-15T01:10:07.919Z,100.00
2019-06-15T01:12:36.930Z,100.00
2019-06-15T01:15:07.522Z,100.00
2019-06-15T01:17:36.718Z,100.00
2019-06-15T01:20:06.429Z,100.00
2019-06-15T01:22:35.470Z,100.00
2019-06-15T01:25:05.943Z,100.00
2019-06-15T01:27:35.122Z,100.00
2019-06-15T01:30:04.487Z,100.00
2019-06-15T01:32:33.630Z,100.00
2019-06-15T01:35:02.950Z,100.00
2019-06-15T01:37:32.366Z,100.00
2019-06-15T01:40:01.553Z,100.00
2019-06-15T01:42:30.575Z,100.00
2019-06-15T01:45:00.047Z,100.00
2019-06-15T01:47:29.021Z,100.00
2019-06-15T01:49:57.995Z,100.00
2019-06-15T01:52:27.362Z,100.00
2019-06-15T01:54:56.229Z,100.00
2019-06-15T01:57:25.131Z,100.00
2019-06-15T01:59:54.429Z,100.00
2019-06-15T02:02:23.370Z,100.00
2019-06-15T02:04:52.424Z,100.00
2019-06-15T02:07:21.596Z,100.00
2019-06-15T02:09:50.960Z,100.00
2019-06-15T02:12:20.121Z,100.00
2019-06-15T02:14:49.300Z,100.00
2019-06-15T02:17:18.641Z,100.00
2019-06-15T02:19:47.608Z,100.00
2019-06-15T02:22:16.795Z,100.00
2019-06-15T02:24:45.688Z,100.00
2019-06-15T02:27:15.080Z,100.00
2019-06-15T02:29:44.283Z,100.00
2019-06-15T02:32:13.251Z,100.00
2019-06-15T02:34:42.198Z,100.00
2019-06-15T02:37:11.174Z,100.00
2019-06-15T02:39:40.435Z,100.00
2019-06-15T02:42:09.970Z,100.00
2019-06-15T02:44:39.460Z,100.00
2019-06-15T02:47:08.675Z,100.00
2019-06-15T02:49:37.894Z,100.00
2019-06-15T02:52:06.860Z,100.00
2019-06-15T02:54:36.056Z,100.00
2019-06-15T02:57:05.074Z,100.00
2019-06-15T02:59:34.333Z,100.00
2019-06-15T03:02:03.266Z,100.00
2019-06-15T03:04:32.437Z,100.00
2019-06-15T03:07:02.093Z,100.00
2019-06-15T03:09:31.053Z,100.00
2019-06-15T03:11:59.982Z,100.00
2019-06-15T03:14:28.832Z,100.00
2019-06-15T03:16:58.068Z,100.00
2019-06-15T03:19:27.187Z,100.00
2019-06-15T03:21:56.094Z,100.00
2019-06-15T03:24:24.947Z,100.00
2019-06-15T03:26:53.849Z,100.00
2019-06-15T03:29:22.644Z,100.00
2019-06-15T03:31:51.573Z,100.00
2019-06-15T03:34:20.799Z,100.00
2019-06-15T03:36:49.829Z,100.00
2019-06-15T03:39:19.026Z,100.00
2019-06-15T03:41:48.424Z,100.00
2019-06-15T03:44:17.638Z,100.00
2019-06-15T03:46:46.537Z,100.00
2019-06-15T03:49:15.538Z,100.00
2019-06-15T03:51:44.501Z,100.00
2019-06-15T03:54:13.859Z,100.00
2019-06-15T03:56:42.986Z,100.00
2019-06-15T03:59:11.867Z,100.00
2019-06-15T04:01:46.747Z,100.00
2019-06-15T04:04:15.676Z,100.00
2019-06-15T04:06:45.149Z,99.25
2019-06-15T04:09:14.349Z,98.84
2019-06-15T04:11:43.483Z,97.83
2019-06-15T04:14:13.056Z,96.84
2019-06-15T04:16:42.045Z,95.80
2019-06-15T04:19:10.963Z,94.71
2019-06-15T04:21:39.830Z,94.45
2019-06-15T04:24:08.875Z,93.05
2019-06-15T04:26:37.741Z,91.68
2019-06-15T04:29:06.713Z,90.33
2019-06-15T04:31:35.911Z,88.87
2019-06-15T04:34:05.455Z,88.13
2019-06-15T04:36:34.623Z,86.96
2019-06-15T04:39:05.653Z,85.58
2019-06-15T04:41:34.603Z,84.72
2019-06-15T04:44:03.949Z,83.82
2019-06-15T04:46:33.252Z,82.82
2019-06-15T04:49:02.227Z,81.49
2019-06-15T04:51:31.124Z,80.80
2019-06-15T04:54:00.407Z,79.68
2019-06-15T04:56:29.354Z,79.43
2019-06-15T04:58:58.615Z,79.42
2019-06-15T05:01:28.220Z,78.89
2019-06-15T05:03:57.133Z,77.96
2019-06-15T05:06:26.083Z,77.25
2019-06-15T05:08:55.173Z,78.00
2019-06-15T05:11:24.097Z,78.91
2019-06-15T05:13:52.980Z,80.56
2019-06-15T05:16:22.196Z,81.43
2019-06-15T05:18:51.109Z,83.18
2019-06-15T05:21:20.338Z,83.65
2019-06-15T05:23:49.160Z,84.04
2019-06-15T05:26:18.593Z,82.93
2019-06-15T05:28:47.764Z,82.20
2019-06-15T05:31:17.027Z,80.09
2019-06-15T05:33:45.912Z,77.53
2019-06-15T05:36:14.859Z,73.62
2019-06-15T05:38:43.674Z,71.18
2019-06-15T05:41:15.642Z,69.56
2019-06-15T05:43:43.558Z,67.08
2019-06-15T05:46:12.553Z,65.87
2019-06-15T05:48:42.278Z,65.01
2019-06-15T05:51:11.568Z,63.27
2019-06-15T05:53:40.427Z,63.77
2019-06-15T05:56:09.948Z,63.20
2019-06-15T05:58:38.831Z,65.79
2019-06-15T06:01:08.259Z,69.72
2019-06-15T06:03:37.250Z,71.24
2019-06-15T06:06:06.140Z,72.54
2019-06-15T06:08:35.434Z,74.43
2019-06-15T06:11:04.957Z,76.85
2019-06-15T06:13:34.117Z,77.68
2019-06-15T06:16:03.431Z,76.25
2019-06-15T06:18:32.539Z,75.93
2019-06-15T06:21:01.857Z,77.78
2019-06-15T06:23:31.146Z,78.53
2019-06-15T06:26:00.689Z,79.63
2019-06-15T06:28:29.942Z,80.48
2019-06-15T06:30:59.244Z,80.89
2019-06-15T06:33:28.437Z,79.61
2019-06-15T06:35:57.527Z,81.22
2019-06-15T06:38:26.545Z,80.88
2019-06-15T06:40:56.172Z,79.31
2019-06-15T06:43:26.001Z,79.08
2019-06-15T06:45:55.266Z,77.37
2019-06-15T06:48:24.397Z,77.37
2019-06-15T06:50:53.418Z,76.72
2019-06-15T06:53:22.366Z,78.12
2019-06-15T06:55:51.356Z,78.77
2019-06-15T06:58:20.829Z,78.78
2019-06-15T07:00:49.778Z,77.83
2019-06-15T07:03:18.864Z,77.62
2019-06-15T07:05:47.843Z,77.80
2019-06-15T07:08:16.734Z,77.96
2019-06-15T07:10:45.722Z,78.34
2019-06-15T07:13:14.675Z,77.94
2019-06-15T07:15:43.944Z,77.94
2019-06-15T07:18:12.910Z,77.66
2019-06-15T07:20:41.866Z,78.19
2019-06-15T07:23:10.750Z,78.85
2019-06-15T07:25:39.644Z,80.08
2019-06-15T07:28:08.778Z,80.89
2019-06-15T07:30:37.758Z,81.77
2019-06-15T07:33:06.679Z,80.87
2019-06-15T07:35:35.611Z,80.36
2019-06-15T07:38:04.920Z,80.98
2019-06-15T07:40:33.938Z,81.32
2019-06-15T07:43:03.262Z,82.15
2019-06-15T07:45:32.512Z,82.98
2019-06-15T07:48:01.403Z,83.16
2019-06-15T07:50:30.952Z,82.92
2019-06-15T07:53:00.300Z,83.08
2019-06-15T07:55:29.217Z,83.03
2019-06-15T07:57:58.233Z,83.41
2019-06-15T08:00:27.234Z,84.17
2019-06-15T08:02:56.222Z,85.11
2019-06-15T08:05:25.460Z,85.26
2019-06-15T08:07:55.201Z,85.97
2019-06-15T08:10:24.535Z,85.61
2019-06-15T08:12:53.429Z,86.28
2019-06-15T08:15:23.017Z,86.94
2019-06-15T08:17:52.605Z,87.30
2019-06-15T08:20:26.136Z,87.37
2019-06-15T08:22:54.951Z,87.71
2019-06-15T08:25:23.894Z,87.92
2019-06-15T08:27:52.840Z,88.06
2019-06-15T08:30:28.168Z,88.38
2019-06-15T08:32:57.153Z,88.45
2019-06-15T08:35:26.153Z,88.08
2019-06-15T08:37:55.155Z,88.42
2019-06-15T08:40:24.124Z,88.48
2019-06-15T08:42:53.058Z,87.85
2019-06-15T08:45:22.066Z,86.80
2019-06-15T08:47:51.389Z,85.52
2019-06-15T08:50:20.794Z,82.83
2019-06-15T08:52:49.968Z,80.92
2019-06-15T08:55:19.281Z,79.03
2019-06-15T08:57:48.154Z,78.11
2019-06-15T09:00:17.778Z,77.13
2019-06-15T09:02:47.074Z,75.46
2019-06-15T09:05:16.308Z,74.83
2019-06-15T09:07:45.210Z,73.92
2019-06-15T09:10:14.315Z,72.24
2019-06-15T09:12:43.268Z,71.95
2019-06-15T09:15:12.395Z,71.39
2019-06-15T09:17:41.574Z,71.06
2019-06-15T09:20:10.726Z,69.36
2019-06-15T09:22:39.929Z,69.47
2019-06-15T09:25:09.578Z,69.90
2019-06-15T09:27:39.160Z,69.60
2019-06-15T09:30:08.560Z,69.20
2019-06-15T09:32:37.436Z,69.49
2019-06-15T09:35:06.852Z,70.02
2019-06-15T09:37:35.904Z,69.65
2019-06-15T09:40:05.541Z,70.52
2019-06-15T09:42:34.568Z,71.52
2019-06-15T09:45:03.544Z,70.85
2019-06-15T09:47:33.048Z,71.34
2019-06-15T09:50:02.557Z,73.20
2019-06-15T09:52:31.486Z,74.48
2019-06-15T09:55:00.497Z,77.13
2019-06-15T09:57:29.440Z,78.17
2019-06-15T09:59:58.353Z,77.58
2019-06-15T10:02:27.537Z,78.59
2019-06-15T10:04:56.732Z,79.65
2019-06-15T10:07:25.675Z,80.73
2019-06-15T10:09:54.939Z,80.74
2019-06-15T10:12:23.865Z,81.95
2019-06-15T10:14:52.774Z,83.55
2019-06-15T10:17:22.149Z,84.95
2019-06-15T10:19:51.235Z,85.87
2019-06-15T10:22:20.148Z,87.08
2019-06-15T10:24:49.072Z,87.18
2019-06-15T10:27:18.079Z,87.11
2019-06-15T10:29:46.959Z,87.00
2019-06-15T10:32:15.940Z,86.65
2019-06-15T10:34:44.842Z,86.16
2019-06-15T10:37:13.726Z,85.51
2019-06-15T10:39:42.665Z,85.69
2019-06-15T10:42:11.488Z,85.39
2019-06-15T10:44:40.735Z,84.71
2019-06-15T10:47:09.937Z,84.97
2019-06-15T10:49:38.822Z,84.99
2019-06-15T10:52:07.842Z,85.26
2019-06-15T10:54:36.908Z,85.66
2019-06-15T10:57:05.832Z,86.40
2019-06-15T10:59:35.070Z,87.27
2019-06-15T11:02:04.382Z,87.12
2019-06-15T11:04:33.283Z,85.77
2019-06-15T11:07:02.178Z,85.12
2019-06-15T11:09:31.118Z,84.51
2019-06-15T11:12:00.045Z,82.41
2019-06-15T11:14:29.544Z,81.52
2019-06-15T11:17:00.765Z,79.58
2019-06-15T11:19:29.641Z,76.82
2019-06-15T11:21:58.610Z,77.15
2019-06-15T11:24:27.585Z,77.28
2019-06-15T11:26:56.477Z,76.06
2019-06-15T11:29:25.687Z,74.74
2019-06-15T11:31:54.645Z,73.01
2019-06-15T11:34:23.856Z,72.15
2019-06-15T11:36:52.744Z,71.65
2019-06-15T11:39:21.652Z,72.02
2019-06-15T11:41:50.640Z,71.53
2019-06-15T11:44:19.568Z,67.77
2019-06-15T11:46:48.419Z,70.57
2019-06-15T11:49:17.699Z,70.63
2019-06-15T11:51:46.972Z,69.05
2019-06-15T11:54:16.104Z,69.80
2019-06-15T11:56:45.078Z,69.46
2019-06-15T11:59:14.030Z,68.45
2019-06-15T12:01:43.295Z,67.05
2019-06-15T12:04:12.196Z,69.28
2019-06-15T12:06:41.203Z,70.57
2019-06-15T12:09:10.434Z,71.25
2019-06-15T12:11:39.962Z,71.42
2019-06-15T12:14:08.906Z,68.05
2019-06-15T12:16:37.767Z,68.25
2019-06-15T12:19:06.707Z,67.04
2019-06-15T12:21:35.956Z,66.37
2019-06-15T12:24:05.110Z,65.08
2019-06-15T12:26:34.059Z,64.39
2019-06-15T12:29:03.019Z,63.15
2019-06-15T12:31:32.209Z,61.67
2019-06-15T12:34:01.512Z,61.72
2019-06-15T12:36:30.814Z,61.02
2019-06-15T12:38:59.760Z,61.15
2019-06-15T12:41:28.670Z,62.33
2019-06-15T12:43:57.614Z,61.93
2019-06-15T12:46:26.905Z,62.16
2019-06-15T12:48:55.843Z,62.00
2019-06-15T12:51:24.840Z,60.16
2019-06-15T12:53:53.976Z,59.82
2019-06-15T12:56:23.248Z,58.25
2019-06-15T12:58:52.604Z,59.18
2019-06-15T13:01:21.581Z,58.54
2019-06-15T13:03:50.551Z,57.95
2019-06-15T13:06:19.774Z,58.06
2019-06-15T13:08:48.690Z,56.90
2019-06-15T13:11:17.596Z,56.37
2019-06-15T13:13:46.564Z,57.23
2019-06-15T13:16:15.505Z,56.97
2019-06-15T13:18:44.838Z,55.92
2019-06-15T13:21:14.056Z,54.34
2019-06-15T13:23:42.960Z,53.77
2019-06-15T13:26:11.868Z,53.88
2019-06-15T13:28:41.180Z,53.62
2019-06-15T13:31:18.204Z,52.53
2019-06-15T13:33:40.738Z,53.40
2019-06-15T13:36:12.447Z,55.25
2019-06-15T13:38:43.560Z,55.11
2019-06-15T13:41:12.846Z,54.40
2019-06-15T13:43:41.654Z,54.95
2019-06-15T13:46:10.530Z,55.26
2019-06-15T13:48:39.479Z,54.57
2019-06-15T13:51:08.833Z,54.85
2019-06-15T13:53:37.746Z,54.63
2019-06-15T13:56:06.631Z,54.68
2019-06-15T13:58:35.545Z,54.10
2019-06-15T14:01:04.523Z,55.12
2019-06-15T14:03:33.603Z,53.99
2019-06-15T14:06:02.503Z,54.00
2019-06-15T14:08:31.663Z,53.71
2019-06-15T14:11:01.025Z,52.88
2019-06-15T14:13:29.898Z,53.15
2019-06-15T14:15:59.118Z,55.40
2019-06-15T14:18:28.000Z,54.56
2019-06-15T14:20:56.986Z,55.01
2019-06-15T14:23:25.907Z,54.47
2019-06-15T14:25:54.795Z,54.42
2019-06-15T14:28:23.779Z,55.02
2019-06-15T14:30:52.909Z,55.07
2019-06-15T14:33:21.902Z,54.61
2019-06-15T14:35:51.250Z,55.06
2019-06-15T14:38:20.506Z,53.87
2019-06-15T14:40:49.745Z,52.50
2019-06-15T14:43:18.912Z,53.66
2019-06-15T14:45:58.921Z,53.73
2019-06-15T14:48:19.229Z,54.04
2019-06-15T14:50:48.141Z,53.68
2019-06-15T14:53:17.104Z,53.54
2019-06-15T14:55:46.525Z,53.26
2019-06-15T14:58:17.103Z,54.04
2019-06-15T15:00:46.781Z,53.73
2019-06-15T15:03:17.163Z,52.65
2019-06-15T15:05:46.145Z,52.48
2019-06-15T15:08:15.068Z,52.62
2019-06-15T15:10:44.189Z,52.18
2019-06-15T15:13:13.071Z,51.63
2019-06-15T15:15:42.311Z,51.05
2019-06-15T15:18:12.060Z,51.97
2019-06-15T15:20:40.982Z,52.50
2019-06-15T15:23:10.168Z,52.22
2019-06-15T15:25:39.076Z,51.58
2019-06-15T15:28:08.013Z,52.33
2019-06-15T15:30:40.952Z,52.56
2019-06-15T15:33:09.933Z,53.21
2019-06-15T15:35:39.153Z,53.11
2019-06-15T15:38:08.102Z,54.38
2019-06-15T15:40:37.038Z,54.71
2019-06-15T15:43:06.996Z,54.40
2019-06-15T15:45:37.022Z,54.30
2019-06-15T15:48:06.944Z,55.25
2019-06-15T15:50:37.069Z,55.27
2019-06-15T15:53:06.579Z,54.67
2019-06-15T15:55:35.535Z,55.17
2019-06-15T15:58:06.796Z,55.02
2019-06-15T16:00:35.388Z,55.54
2019-06-15T16:03:07.117Z,56.19
2019-06-15T16:05:37.041Z,56.93
2019-06-15T16:08:06.767Z,57.50
2019-06-15T16:10:37.447Z,58.40
2019-06-15T16:13:06.688Z,58.60
2019-06-15T16:15:37.199Z,59.05
2019-06-15T16:18:06.911Z,58.60
2019-06-15T16:20:37.038Z,58.75
2019-06-15T16:23:07.441Z,59.14
2019-06-15T16:25:37.337Z,59.11
2019-06-15T16:28:07.048Z,59.22
2019-06-15T16:31:00.471Z,59.78
2019-06-15T16:33:07.979Z,60.19
2019-06-15T16:35:37.134Z,60.91
2019-06-15T16:38:06.895Z,60.21
2019-06-15T16:40:38.621Z,59.76
2019-06-15T16:43:07.652Z,58.31
2019-06-15T16:45:36.736Z,56.76
2019-06-15T16:48:06.499Z,56.22
2019-06-15T16:50:36.609Z,55.86
2019-06-15T16:53:06.999Z,55.84
2019-06-15T16:55:37.052Z,55.36
2019-06-15T16:58:07.376Z,55.16
2019-06-15T17:00:36.766Z,54.02
2019-06-15T17:03:19.939Z,54.40
2019-06-15T17:05:37.286Z,53.11
2019-06-15T17:08:07.162Z,53.08
2019-06-15T17:10:39.003Z,53.45
2019-06-15T17:13:07.977Z,53.98
2019-06-15T17:15:37.248Z,55.46
2019-06-15T17:18:06.747Z,55.30
2019-06-15T17:20:42.982Z,55.46
2019-06-15T17:23:11.835Z,55.82
2019-06-15T17:25:40.699Z,56.90
2019-06-15T17:28:09.632Z,56.34
2019-06-15T17:30:38.570Z,52.87
2019-06-15T17:33:08.422Z,50.98
2019-06-15T17:35:37.794Z,50.16
2019-06-15T17:38:06.808Z,50.12
2019-06-15T17:40:36.449Z,49.62
2019-06-15T17:43:06.621Z,50.07
2019-06-15T17:45:37.576Z,49.93
2019-06-15T17:48:06.908Z,50.83
2019-06-15T17:50:40.219Z,52.29
2019-06-15T17:53:09.172Z,51.81
2019-06-15T17:55:39.149Z,52.14
2019-06-15T17:58:08.132Z,52.89
2019-06-15T18:00:42.953Z,53.26
2019-06-15T18:03:12.373Z,53.50
2019-06-15T18:05:41.691Z,53.30
2019-06-15T18:08:11.327Z,54.37
2019-06-15T18:10:40.598Z,55.90
2019-06-15T18:13:09.537Z,56.76
2019-06-15T18:15:38.707Z,57.04
2019-06-15T18:18:07.662Z,57.30
2019-06-15T18:20:37.066Z,57.58
2019-06-15T18:23:06.366Z,57.23
2019-06-15T18:25:37.196Z,57.74
2019-06-15T18:28:06.437Z,57.17
2019-06-15T18:30:37.171Z,56.76
2019-06-15T18:33:07.115Z,57.11
2019-06-15T18:35:36.472Z,57.01
2019-06-15T18:38:07.216Z,56.98
2019-06-15T18:40:37.197Z,56.92
2019-06-15T18:43:07.313Z,56.37
2019-06-15T18:45:36.473Z,56.85
2019-06-15T18:48:06.238Z,57.14
2019-06-15T18:50:37.727Z,56.65
2019-06-15T18:53:07.363Z,56.73
2019-06-15T18:55:36.581Z,56.92
2019-06-15T18:58:05.882Z,56.43
2019-06-15T19:00:37.123Z,57.52
2019-06-15T19:03:06.934Z,56.28
2019-06-15T19:05:37.468Z,56.33
2019-06-15T19:08:06.957Z,56.91
2019-06-15T19:10:36.922Z,57.27
2019-06-15T19:13:07.538Z,57.36
2019-06-15T19:15:37.423Z,57.31
2019-06-15T19:18:07.616Z,57.35
2019-06-15T19:20:37.441Z,57.71
2019-06-15T19:23:07.297Z,58.21
2019-06-15T19:25:36.763Z,57.98
2019-06-15T19:28:05.908Z,58.79
2019-06-15T19:30:37.281Z,58.51
2019-06-15T19:33:06.124Z,58.84
2019-06-15T19:35:36.351Z,59.45
2019-06-15T19:38:06.559Z,59.88
2019-06-15T19:40:37.781Z,59.63
2019-06-15T19:43:06.878Z,59.76
2019-06-15T19:45:37.059Z,61.08
2019-06-15T19:48:06.823Z,62.22
2019-06-15T19:50:36.525Z,63.71
2019-06-15T19:53:07.056Z,64.93
2019-06-15T19:55:36.422Z,65.15
2019-06-15T19:58:07.174Z,63.87
2019-06-15T20:00:36.629Z,64.24
2019-06-15T20:03:06.990Z,65.52
2019-06-15T20:05:37.280Z,66.34
2019-06-15T20:08:07.234Z,67.07
2019-06-15T20:10:37.282Z,68.34
2019-06-15T20:13:07.168Z,68.98
2019-06-15T20:15:37.664Z,69.36
2019-06-15T20:18:07.249Z,69.83
2019-06-15T20:20:37.083Z,70.46
2019-06-15T20:23:07.280Z,71.09
2019-06-15T20:25:37.016Z,71.20
2019-06-15T20:28:07.115Z,71.18
2019-06-15T20:30:37.142Z,71.71
2019-06-15T20:33:07.995Z,71.64
2019-06-15T20:35:36.892Z,71.68
2019-06-15T20:38:06.062Z,71.82
2019-06-15T20:40:36.565Z,72.28
2019-06-15T20:43:07.606Z,72.55
2019-06-15T20:45:37.133Z,73.23
2019-06-15T20:48:06.852Z,73.65
2019-06-15T20:50:36.476Z,73.97
2019-06-15T20:53:06.116Z,74.59
2019-06-15T20:55:37.278Z,74.68
2019-06-15T20:58:06.646Z,74.72
2019-06-15T21:00:36.774Z,75.49
2019-06-15T21:03:06.873Z,75.88
2019-06-15T21:05:41.038Z,76.11
2019-06-15T21:08:07.142Z,76.58
2019-06-15T21:10:37.266Z,76.74
2019-06-15T21:13:06.439Z,76.52
2019-06-15T21:15:38.610Z,76.77
2019-06-15T21:18:07.633Z,76.66
2019-06-15T21:20:36.603Z,77.05
2019-06-15T21:23:06.707Z,77.40
2019-06-15T21:25:35.837Z,77.46
2019-06-15T21:28:06.693Z,77.50
2019-06-15T21:30:36.875Z,77.59
2019-06-15T21:33:07.074Z,77.81
2019-06-15T21:35:48.189Z,77.91
2019-06-15T21:38:07.106Z,78.20
2019-06-15T21:40:36.959Z,78.47
2019-06-15T21:43:07.028Z,78.67
2019-06-15T21:45:36.765Z,79.19
2019-06-15T21:48:06.797Z,79.32
2019-06-15T21:50:36.321Z,79.56
2019-06-15T21:53:06.975Z,79.84
2019-06-15T21:55:36.450Z,79.98
2019-06-15T21:58:07.579Z,80.19
2019-06-15T22:00:47.824Z,80.38
2019-06-15T22:03:17.033Z,80.04
2019-06-15T22:05:50.068Z,80.03
2019-06-15T22:08:17.164Z,79.91
2019-06-15T22:10:46.362Z,79.59
2019-06-15T22:13:16.009Z,79.75
2019-06-15T22:15:46.642Z,79.82
2019-06-15T22:18:16.467Z,79.46
2019-06-15T22:20:47.125Z,79.55
2019-06-15T22:23:16.686Z,79.81
2019-06-15T22:25:46.363Z,79.95
2019-06-15T22:28:16.459Z,80.39
2019-06-15T22:30:46.342Z,80.64
2019-06-15T22:33:16.531Z,80.88
2019-06-15T22:35:47.514Z,81.35
2019-06-15T22:38:16.456Z,81.54
2019-06-15T22:40:47.048Z,81.70
2019-06-15T22:43:16.768Z,81.93
2019-06-15T22:45:49.777Z,82.20
2019-06-15T22:48:16.686Z,82.43
2019-06-15T22:50:46.816Z,82.14
2019-06-15T22:53:16.563Z,82.42
2019-06-15T22:55:46.407Z,82.26
2019-06-15T22:58:17.923Z,82.30
2019-06-15T23:00:47.007Z,82.37
2019-06-15T23:03:16.851Z,82.48
2019-06-15T23:05:46.409Z,82.30
2019-06-15T23:08:16.278Z,82.46
2019-06-15T23:10:46.824Z,82.31
2019-06-15T23:13:16.222Z,82.15
2019-06-15T23:15:47.073Z,81.89
2019-06-15T23:18:17.156Z,81.47
2019-06-15T23:20:46.427Z,81.14
2019-06-15T23:23:16.286Z,81.44
2019-06-15T23:25:47.241Z,81.42
2019-06-15T23:28:16.570Z,81.03
2019-06-15T23:30:47.304Z,81.33
2019-06-15T23:33:17.215Z,81.54
2019-06-15T23:35:52.131Z,81.15
2019-06-15T23:38:21.487Z,81.08
2019-06-15T23:40:50.765Z,81.44
2019-06-15T23:43:20.211Z,81.73
2019-06-15T23:45:49.440Z,81.33
2019-06-15T23:48:18.644Z,81.08
2019-06-15T23:50:47.643Z,81.46
2019-06-15T23:53:17.063Z,81.30
2019-06-15T23:55:47.233Z,81.48
2019-06-15T23:58:17.640Z,81.71
